sensor_id;sensor_type;location;lat;lon;timestamp;P1;durP1;ratioP1;P2;durP2;ratioP2
38455;SDS011;24237;50.106;20.014;2023-04-05T00:01:24;27.67;;;9.98;;
38455;SDS011;24237;50.106;20.014;2023-04-05T00:03:54;25.23;;;9.77;;
38455;SDS011;24237;50.106;20.014;2023-04-05T00:06:21;31.38;;;11.02;;
38455;SDS011;24237;50.106;20.014;2023-04-05T00:08:50;28.88;;;10.55;;
38455;SDS011;24237;50.106;20.014;2023-04-05T00:11:20;34.55;;;11.32;;
38455;SDS011;24237;50.106;20.014;2023-04-05T00:13:46;37.78;;;10.65;;
38455;SDS011;24237;50.106;20.014;2023-04-05T00:16:12;30.17;;;10.35;;
38455;SDS011;24237;50.106;20.014;2023-04-05T00:18:37;33.28;;;11.68;;
38455;SDS011;24237;50.106;20.014;2023-04-05T00:21:03;24.20;;;9.23;;
38455;SDS011;24237;50.106;20.014;2023-04-05T00:23:30;25.48;;;10.60;;
38455;SDS011;24237;50.106;20.014;2023-04-05T00:26:01;31.98;;;11.88;;
38455;SDS011;24237;50.106;20.014;2023-04-05T00:28:26;25.48;;;10.40;;
38455;SDS011;24237;50.106;20.014;2023-04-05T00:30:52;27.83;;;10.40;;
38455;SDS011;24237;50.106;20.014;2023-04-05T00:33:18;28.13;;;10.30;;
38455;SDS011;24237;50.106;20.014;2023-04-05T00:35:43;26.95;;;11.10;;
38455;SDS011;24237;50.106;20.014;2023-04-05T00:38:09;28.45;;;11.10;;
38455;SDS011;24237;50.106;20.014;2023-04-05T00:40:34;30.65;;;10.65;;
38455;SDS011;24237;50.106;20.014;2023-04-05T00:43:00;22.50;;;9.13;;
38455;SDS011;24237;50.106;20.014;2023-04-05T00:45:25;27.23;;;11.25;;
38455;SDS011;24237;50.106;20.014;2023-04-05T00:47:51;33.55;;;11.13;;
38455;SDS011;24237;50.106;20.014;2023-04-05T00:50:17;31.88;;;11.65;;
38455;SDS011;24237;50.106;20.014;2023-04-05T00:52:43;29.10;;;10.02;;
38455;SDS011;24237;50.106;20.014;2023-04-05T00:55:10;31.52;;;11.07;;
38455;SDS011;24237;50.106;20.014;2023-04-05T00:57:35;25.50;;;10.95;;
38455;SDS011;24237;50.106;20.014;2023-04-05T01:00:03;33.15;;;11.75;;
38455;SDS011;24237;50.106;20.014;2023-04-05T01:02:35;29.20;;;10.70;;
38455;SDS011;24237;50.106;20.014;2023-04-05T01:08:15;19.85;;;9.40;;
38455;SDS011;24237;50.106;20.014;2023-04-05T01:10:51;26.00;;;9.35;;
38455;SDS011;24237;50.106;20.014;2023-04-05T01:13:21;26.77;;;9.52;;
38455;SDS011;24237;50.106;20.014;2023-04-05T01:15:49;29.25;;;9.77;;
38455;SDS011;24237;50.106;20.014;2023-04-05T01:18:15;29.33;;;10.48;;
38455;SDS011;24237;50.106;20.014;2023-04-05T01:20:44;23.95;;;9.70;;
38455;SDS011;24237;50.106;20.014;2023-04-05T01:23:20;26.13;;;9.52;;
38455;SDS011;24237;50.106;20.014;2023-04-05T01:31:22;20.08;;;9.15;;
38455;SDS011;24237;50.106;20.014;2023-04-05T01:34:04;20.60;;;8.82;;
38455;SDS011;24237;50.106;20.014;2023-04-05T01:36:40;21.10;;;9.25;;
38455;SDS011;24237;50.106;20.014;2023-04-05T01:39:10;19.58;;;7.85;;
38455;SDS011;24237;50.106;20.014;2023-04-05T01:41:39;23.15;;;8.95;;
38455;SDS011;24237;50.106;20.014;2023-04-05T01:44:05;19.02;;;7.93;;
38455;SDS011;24237;50.106;20.014;2023-04-05T01:46:30;20.20;;;9.35;;
38455;SDS011;24237;50.106;20.014;2023-04-05T01:48:56;20.27;;;8.60;;
38455;SDS011;24237;50.106;20.014;2023-04-05T01:51:22;18.73;;;8.40;;
38455;SDS011;24237;50.106;20.014;2023-04-05T01:53:47;18.75;;;7.88;;
38455;SDS011;24237;50.106;20.014;2023-04-05T01:56:13;21.02;;;7.97;;
38455;SDS011;24237;50.106;20.014;2023-04-05T01:58:38;18.92;;;7.32;;
38455;SDS011;24237;50.106;20.014;2023-04-05T02:01:04;23.63;;;8.23;;
38455;SDS011;24237;50.106;20.014;2023-04-05T02:03:30;24.90;;;8.43;;
38455;SDS011;24237;50.106;20.014;2023-04-05T02:05:56;16.95;;;7.65;;
38455;SDS011;24237;50.106;20.014;2023-04-05T02:08:22;14.27;;;6.93;;
38455;SDS011;24237;50.106;20.014;2023-04-05T02:10:47;15.65;;;7.00;;
38455;SDS011;24237;50.106;20.014;2023-04-05T02:13:13;15.93;;;6.05;;
38455;SDS011;24237;50.106;20.014;2023-04-05T02:15:38;22.17;;;7.78;;
38455;SDS011;24237;50.106;20.014;2023-04-05T02:18:04;16.75;;;7.10;;
38455;SDS011;24237;50.106;20.014;2023-04-05T02:20:31;13.00;;;6.15;;
38455;SDS011;24237;50.106;20.014;2023-04-05T02:22:58;17.13;;;6.67;;
38455;SDS011;24237;50.106;20.014;2023-04-05T02:25:24;15.75;;;6.00;;
38455;SDS011;24237;50.106;20.014;2023-04-05T02:27:50;14.32;;;6.20;;
38455;SDS011;24237;50.106;20.014;2023-04-05T02:30:16;18.70;;;6.75;;
38455;SDS011;24237;50.106;20.014;2023-04-05T02:32:41;21.63;;;7.47;;
38455;SDS011;24237;50.106;20.014;2023-04-05T02:35:08;17.92;;;5.70;;
38455;SDS011;24237;50.106;20.014;2023-04-05T02:37:34;17.85;;;6.85;;
38455;SDS011;24237;50.106;20.014;2023-04-05T02:40:00;19.65;;;7.00;;
38455;SDS011;24237;50.106;20.014;2023-04-05T02:42:29;17.70;;;7.53;;
38455;SDS011;24237;50.106;20.014;2023-04-05T02:44:54;21.27;;;7.40;;
38455;SDS011;24237;50.106;20.014;2023-04-05T02:47:20;17.38;;;7.60;;
38455;SDS011;24237;50.106;20.014;2023-04-05T02:49:49;18.85;;;6.88;;
38455;SDS011;24237;50.106;20.014;2023-04-05T02:52:15;15.38;;;6.72;;
38455;SDS011;24237;50.106;20.014;2023-04-05T02:54:41;17.77;;;7.32;;
38455;SDS011;24237;50.106;20.014;2023-04-05T02:57:06;17.10;;;6.65;;
38455;SDS011;24237;50.106;20.014;2023-04-05T02:59:34;22.38;;;7.35;;
38455;SDS011;24237;50.106;20.014;2023-04-05T03:02:00;19.30;;;8.10;;
38455;SDS011;24237;50.106;20.014;2023-04-05T03:04:26;15.23;;;7.20;;
38455;SDS011;24237;50.106;20.014;2023-04-05T03:06:52;18.23;;;7.78;;
38455;SDS011;24237;50.106;20.014;2023-04-05T03:09:19;25.90;;;8.70;;
38455;SDS011;24237;50.106;20.014;2023-04-05T03:11:45;18.87;;;8.63;;
38455;SDS011;24237;50.106;20.014;2023-04-05T03:14:11;26.92;;;8.70;;
38455;SDS011;24237;50.106;20.014;2023-04-05T03:16:37;21.40;;;8.98;;
38455;SDS011;24237;50.106;20.014;2023-04-05T03:19:05;24.30;;;8.95;;
38455;SDS011;24237;50.106;20.014;2023-04-05T03:21:31;19.23;;;7.95;;
38455;SDS011;24237;50.106;20.014;2023-04-05T03:23:57;18.60;;;7.97;;
38455;SDS011;24237;50.106;20.014;2023-04-05T03:26:24;26.63;;;8.40;;
38455;SDS011;24237;50.106;20.014;2023-04-05T03:28:50;23.45;;;9.52;;
38455;SDS011;24237;50.106;20.014;2023-04-05T03:31:15;24.92;;;9.43;;
38455;SDS011;24237;50.106;20.014;2023-04-05T03:33:41;29.13;;;10.07;;
38455;SDS011;24237;50.106;20.014;2023-04-05T03:36:07;34.30;;;9.85;;
38455;SDS011;24237;50.106;20.014;2023-04-05T03:38:33;32.63;;;11.60;;
38455;SDS011;24237;50.106;20.014;2023-04-05T03:41:00;21.35;;;9.57;;
38455;SDS011;24237;50.106;20.014;2023-04-05T03:43:28;25.83;;;9.60;;
38455;SDS011;24237;50.106;20.014;2023-04-05T03:45:54;27.70;;;10.10;;
38455;SDS011;24237;50.106;20.014;2023-04-05T03:48:19;22.85;;;10.32;;
38455;SDS011;24237;50.106;20.014;2023-04-05T03:50:46;24.20;;;9.48;;
38455;SDS011;24237;50.106;20.014;2023-04-05T03:53:11;31.80;;;10.80;;
38455;SDS011;24237;50.106;20.014;2023-04-05T03:55:37;28.77;;;11.60;;
38455;SDS011;24237;50.106;20.014;2023-04-05T03:58:04;23.35;;;10.48;;
38455;SDS011;24237;50.106;20.014;2023-04-05T04:00:29;30.35;;;12.38;;
38455;SDS011;24237;50.106;20.014;2023-04-05T04:02:55;27.95;;;12.18;;
38455;SDS011;24237;50.106;20.014;2023-04-05T04:05:21;26.90;;;11.40;;
38455;SDS011;24237;50.106;20.014;2023-04-05T04:07:47;36.95;;;13.10;;
38455;SDS011;24237;50.106;20.014;2023-04-05T04:10:13;31.27;;;11.75;;
38455;SDS011;24237;50.106;20.014;2023-04-05T04:12:41;33.50;;;13.25;;
38455;SDS011;24237;50.106;20.014;2023-04-05T04:15:07;28.65;;;12.35;;
38455;SDS011;24237;50.106;20.014;2023-04-05T04:17:34;32.13;;;13.25;;
38455;SDS011;24237;50.106;20.014;2023-04-05T04:20:00;41.03;;;14.00;;
38455;SDS011;24237;50.106;20.014;2023-04-05T04:22:32;28.10;;;13.90;;
38455;SDS011;24237;50.106;20.014;2023-04-05T04:25:00;40.88;;;13.63;;
38455;SDS011;24237;50.106;20.014;2023-04-05T04:27:27;40.80;;;15.07;;
38455;SDS011;24237;50.106;20.014;2023-04-05T04:29:54;52.63;;;16.02;;
38455;SDS011;24237;50.106;20.014;2023-04-05T04:32:25;46.70;;;15.82;;
38455;SDS011;24237;50.106;20.014;2023-04-05T04:35:11;43.45;;;14.70;;
38455;SDS011;24237;50.106;20.014;2023-04-05T04:37:42;42.35;;;15.77;;
38455;SDS011;24237;50.106;20.014;2023-04-05T04:40:18;40.95;;;15.57;;
38455;SDS011;24237;50.106;20.014;2023-04-05T04:42:45;36.75;;;14.63;;
38455;SDS011;24237;50.106;20.014;2023-04-05T04:45:14;35.38;;;14.13;;
38455;SDS011;24237;50.106;20.014;2023-04-05T04:47:44;34.75;;;14.95;;
38455;SDS011;24237;50.106;20.014;2023-04-05T04:50:11;40.05;;;13.80;;
38455;SDS011;24237;50.106;20.014;2023-04-05T04:52:38;38.10;;;14.07;;
38455;SDS011;24237;50.106;20.014;2023-04-05T04:55:05;34.50;;;14.00;;
38455;SDS011;24237;50.106;20.014;2023-04-05T04:57:34;43.38;;;13.00;;
38455;SDS011;24237;50.106;20.014;2023-04-05T05:00:00;31.30;;;13.50;;
38455;SDS011;24237;50.106;20.014;2023-04-05T05:02:26;37.33;;;13.18;;
38455;SDS011;24237;50.106;20.014;2023-04-05T05:04:52;41.88;;;13.73;;
38455;SDS011;24237;50.106;20.014;2023-04-05T05:07:18;62.08;;;22.95;;
38455;SDS011;24237;50.106;20.014;2023-04-05T05:09:45;34.43;;;14.50;;
38455;SDS011;24237;50.106;20.014;2023-04-05T05:12:11;35.08;;;13.20;;
38455;SDS011;24237;50.106;20.014;2023-04-05T05:14:37;38.67;;;15.55;;
38455;SDS011;24237;50.106;20.014;2023-04-05T05:17:03;50.22;;;16.52;;
38455;SDS011;24237;50.106;20.014;2023-04-05T05:19:30;39.83;;;15.07;;
38455;SDS011;24237;50.106;20.014;2023-04-05T05:21:56;45.05;;;15.32;;
38455;SDS011;24237;50.106;20.014;2023-04-05T05:24:22;46.95;;;15.48;;
38455;SDS011;24237;50.106;20.014;2023-04-05T05:26:48;46.53;;;16.08;;
38455;SDS011;24237;50.106;20.014;2023-04-05T05:29:14;49.97;;;15.50;;
38455;SDS011;24237;50.106;20.014;2023-04-05T05:31:40;39.92;;;15.52;;
38455;SDS011;24237;50.106;20.014;2023-04-05T05:34:05;45.78;;;15.32;;
38455;SDS011;24237;50.106;20.014;2023-04-05T05:36:31;41.63;;;16.05;;
38455;SDS011;24237;50.106;20.014;2023-04-05T05:38:57;49.20;;;16.85;;
38455;SDS011;24237;50.106;20.014;2023-04-05T05:41:23;47.47;;;17.50;;
38455;SDS011;24237;50.106;20.014;2023-04-05T05:43:48;44.45;;;17.38;;
38455;SDS011;24237;50.106;20.014;2023-04-05T05:46:14;47.53;;;16.08;;
38455;SDS011;24237;50.106;20.014;2023-04-05T05:48:40;35.25;;;15.77;;
38455;SDS011;24237;50.106;20.014;2023-04-05T05:51:06;36.58;;;16.20;;
38455;SDS011;24237;50.106;20.014;2023-04-05T05:53:34;37.80;;;13.50;;
38455;SDS011;24237;50.106;20.014;2023-04-05T05:56:03;46.42;;;17.33;;
38455;SDS011;24237;50.106;20.014;2023-04-05T05:58:28;43.08;;;15.88;;
38455;SDS011;24237;50.106;20.014;2023-04-05T06:00:54;41.88;;;16.02;;
38455;SDS011;24237;50.106;20.014;2023-04-05T06:03:23;43.88;;;16.23;;
38455;SDS011;24237;50.106;20.014;2023-04-05T06:05:56;40.92;;;15.32;;
38455;SDS011;24237;50.106;20.014;2023-04-05T06:08:23;39.88;;;15.82;;
38455;SDS011;24237;50.106;20.014;2023-04-05T06:10:51;41.50;;;17.25;;
38455;SDS011;24237;50.106;20.014;2023-04-05T06:13:17;35.00;;;15.07;;
38455;SDS011;24237;50.106;20.014;2023-04-05T06:15:43;39.35;;;14.68;;
38455;SDS011;24237;50.106;20.014;2023-04-05T06:18:09;30.45;;;13.93;;
38455;SDS011;24237;50.106;20.014;2023-04-05T06:20:34;32.78;;;14.68;;
38455;SDS011;24237;50.106;20.014;2023-04-05T06:23:04;50.78;;;16.00;;
38455;SDS011;24237;50.106;20.014;2023-04-05T06:25:33;37.58;;;14.52;;
38455;SDS011;24237;50.106;20.014;2023-04-05T06:27:58;37.58;;;14.85;;
38455;SDS011;24237;50.106;20.014;2023-04-05T06:30:24;42.67;;;15.65;;
38455;SDS011;24237;50.106;20.014;2023-04-05T06:32:50;40.78;;;15.43;;
38455;SDS011;24237;50.106;20.014;2023-04-05T06:35:19;31.08;;;12.70;;
38455;SDS011;24237;50.106;20.014;2023-04-05T06:37:45;30.60;;;13.82;;
38455;SDS011;24237;50.106;20.014;2023-04-05T06:40:11;33.00;;;12.75;;
38455;SDS011;24237;50.106;20.014;2023-04-05T06:42:37;39.55;;;13.15;;
38455;SDS011;24237;50.106;20.014;2023-04-05T06:45:03;30.92;;;13.57;;
38455;SDS011;24237;50.106;20.014;2023-04-05T06:47:33;25.50;;;11.77;;
38455;SDS011;24237;50.106;20.014;2023-04-05T06:49:59;38.10;;;12.48;;
38455;SDS011;24237;50.106;20.014;2023-04-05T06:52:26;35.78;;;12.02;;
38455;SDS011;24237;50.106;20.014;2023-04-05T06:54:52;27.83;;;11.52;;
38455;SDS011;24237;50.106;20.014;2023-04-05T06:57:17;29.80;;;11.73;;
38455;SDS011;24237;50.106;20.014;2023-04-05T06:59:43;27.60;;;11.98;;
38455;SDS011;24237;50.106;20.014;2023-04-05T07:02:09;34.25;;;12.30;;
38455;SDS011;24237;50.106;20.014;2023-04-05T07:04:34;34.30;;;11.10;;
38455;SDS011;24237;50.106;20.014;2023-04-05T07:07:01;28.02;;;11.48;;
38455;SDS011;24237;50.106;20.014;2023-04-05T07:09:27;26.42;;;9.38;;
38455;SDS011;24237;50.106;20.014;2023-04-05T07:14:21;21.02;;;8.75;;
38455;SDS011;24237;50.106;20.014;2023-04-05T07:16:47;23.50;;;8.85;;
38455;SDS011;24237;50.106;20.014;2023-04-05T07:19:13;20.33;;;8.20;;
38455;SDS011;24237;50.106;20.014;2023-04-05T07:21:39;21.38;;;8.88;;
38455;SDS011;24237;50.106;20.014;2023-04-05T07:24:05;26.95;;;9.77;;
38455;SDS011;24237;50.106;20.014;2023-04-05T07:26:31;30.33;;;8.52;;
38455;SDS011;24237;50.106;20.014;2023-04-05T07:29:01;17.70;;;5.70;;
38455;SDS011;24237;50.106;20.014;2023-04-05T07:31:27;12.68;;;5.00;;
38455;SDS011;24237;50.106;20.014;2023-04-05T07:33:53;14.25;;;6.30;;
38455;SDS011;24237;50.106;20.014;2023-04-05T07:36:18;16.23;;;6.15;;
38455;SDS011;24237;50.106;20.014;2023-04-05T07:38:44;17.73;;;6.88;;
38455;SDS011;24237;50.106;20.014;2023-04-05T07:41:10;21.45;;;7.20;;
38455;SDS011;24237;50.106;20.014;2023-04-05T07:43:35;23.05;;;7.47;;
38455;SDS011;24237;50.106;20.014;2023-04-05T07:46:02;17.58;;;7.40;;
38455;SDS011;24237;50.106;20.014;2023-04-05T07:48:28;9.93;;;4.80;;
38455;SDS011;24237;50.106;20.014;2023-04-05T07:50:54;14.48;;;4.32;;
38455;SDS011;24237;50.106;20.014;2023-04-05T07:53:20;15.07;;;4.22;;
38455;SDS011;24237;50.106;20.014;2023-04-05T07:55:46;15.15;;;5.53;;
38455;SDS011;24237;50.106;20.014;2023-04-05T07:58:12;10.23;;;5.10;;
38455;SDS011;24237;50.106;20.014;2023-04-05T08:00:38;16.48;;;5.72;;
38455;SDS011;24237;50.106;20.014;2023-04-05T08:03:03;11.32;;;4.97;;
38455;SDS011;24237;50.106;20.014;2023-04-05T08:05:29;12.32;;;5.45;;
38455;SDS011;24237;50.106;20.014;2023-04-05T08:07:55;28.70;;;11.57;;
38455;SDS011;24237;50.106;20.014;2023-04-05T08:10:22;26.85;;;8.93;;
38455;SDS011;24237;50.106;20.014;2023-04-05T08:12:51;26.15;;;8.35;;
38455;SDS011;24237;50.106;20.014;2023-04-05T08:15:17;20.67;;;7.15;;
38455;SDS011;24237;50.106;20.014;2023-04-05T08:17:42;17.08;;;6.72;;
38455;SDS011;24237;50.106;20.014;2023-04-05T08:20:08;30.92;;;9.32;;
38455;SDS011;24237;50.106;20.014;2023-04-05T08:22:34;19.73;;;7.97;;
38455;SDS011;24237;50.106;20.014;2023-04-05T08:24:59;18.90;;;7.78;;
38455;SDS011;24237;50.106;20.014;2023-04-05T08:27:25;20.55;;;8.77;;
38455;SDS011;24237;50.106;20.014;2023-04-05T08:29:50;19.05;;;8.88;;
38455;SDS011;24237;50.106;20.014;2023-04-05T08:32:16;18.52;;;7.90;;
38455;SDS011;24237;50.106;20.014;2023-04-05T08:34:41;20.10;;;7.63;;
38455;SDS011;24237;50.106;20.014;2023-04-05T08:37:07;21.35;;;8.10;;
38455;SDS011;24237;50.106;20.014;2023-04-05T08:39:35;16.50;;;6.93;;
38455;SDS011;24237;50.106;20.014;2023-04-05T08:47:19;16.58;;;7.72;;
38455;SDS011;24237;50.106;20.014;2023-04-05T08:49:47;19.40;;;9.05;;
38455;SDS011;24237;50.106;20.014;2023-04-05T08:52:13;17.40;;;6.78;;
38455;SDS011;24237;50.106;20.014;2023-04-05T08:54:39;13.43;;;6.15;;
38455;SDS011;24237;50.106;20.014;2023-04-05T08:57:05;11.18;;;5.15;;
38455;SDS011;24237;50.106;20.014;2023-04-05T08:59:32;14.65;;;5.43;;
38455;SDS011;24237;50.106;20.014;2023-04-05T09:02:01;13.00;;;6.60;;
38455;SDS011;24237;50.106;20.014;2023-04-05T09:04:34;14.52;;;6.53;;
38455;SDS011;24237;50.106;20.014;2023-04-05T09:07:05;14.48;;;6.32;;
38455;SDS011;24237;50.106;20.014;2023-04-05T09:09:34;14.60;;;6.68;;
38455;SDS011;24237;50.106;20.014;2023-04-05T09:14:28;17.30;;;5.68;;
38455;SDS011;24237;50.106;20.014;2023-04-05T09:16:55;12.70;;;5.10;;
38455;SDS011;24237;50.106;20.014;2023-04-05T09:19:22;11.98;;;5.32;;
38455;SDS011;24237;50.106;20.014;2023-04-05T09:24:29;8.43;;;4.47;;
38455;SDS011;24237;50.106;20.014;2023-04-05T09:27:10;8.80;;;4.75;;
38455;SDS011;24237;50.106;20.014;2023-04-05T09:29:40;20.40;;;4.82;;
38455;SDS011;24237;50.106;20.014;2023-04-05T09:32:07;14.70;;;3.97;;
38455;SDS011;24237;50.106;20.014;2023-04-05T09:34:34;17.27;;;3.60;;
38455;SDS011;24237;50.106;20.014;2023-04-05T09:37:01;10.63;;;3.07;;
38455;SDS011;24237;50.106;20.014;2023-04-05T09:39:35;9.10;;;4.35;;
38455;SDS011;24237;50.106;20.014;2023-04-05T09:44:52;13.40;;;4.13;;
38455;SDS011;24237;50.106;20.014;2023-04-05T09:47:21;16.30;;;4.05;;
38455;SDS011;24237;50.106;20.014;2023-04-05T09:49:49;12.00;;;4.75;;
38455;SDS011;24237;50.106;20.014;2023-04-05T09:54:56;16.33;;;5.07;;
38455;SDS011;24237;50.106;20.014;2023-04-05T09:57:27;14.23;;;4.82;;
38455;SDS011;24237;50.106;20.014;2023-04-05T09:59:54;18.85;;;5.65;;
38455;SDS011;24237;50.106;20.014;2023-04-05T10:02:20;12.23;;;4.90;;
38455;SDS011;24237;50.106;20.014;2023-04-05T10:04:46;9.63;;;4.50;;
38455;SDS011;24237;50.106;20.014;2023-04-05T10:07:14;11.43;;;4.40;;
38455;SDS011;24237;50.106;20.014;2023-04-05T10:09:41;15.10;;;5.25;;
38455;SDS011;24237;50.106;20.014;2023-04-05T10:12:08;18.90;;;5.57;;
38455;SDS011;24237;50.106;20.014;2023-04-05T10:14:35;24.58;;;7.85;;
38455;SDS011;24237;50.106;20.014;2023-04-05T10:22:16;12.77;;;5.13;;
38455;SDS011;24237;50.106;20.014;2023-04-05T10:24:51;9.75;;;4.97;;
38455;SDS011;24237;50.106;20.014;2023-04-05T10:27:26;12.10;;;4.93;;
38455;SDS011;24237;50.106;20.014;2023-04-05T10:30:03;8.82;;;4.30;;
38455;SDS011;24237;50.106;20.014;2023-04-05T10:35:17;13.38;;;4.97;;
38455;SDS011;24237;50.106;20.014;2023-04-05T10:40:36;10.13;;;4.43;;
38455;SDS011;24237;50.106;20.014;2023-04-05T10:43:03;9.98;;;4.95;;
38455;SDS011;24237;50.106;20.014;2023-04-05T10:45:30;9.18;;;4.88;;
38455;SDS011;24237;50.106;20.014;2023-04-05T10:47:57;9.23;;;4.45;;
38455;SDS011;24237;50.106;20.014;2023-04-05T10:50:30;12.32;;;6.00;;
38455;SDS011;24237;50.106;20.014;2023-04-05T10:52:56;26.60;;;6.70;;
38455;SDS011;24237;50.106;20.014;2023-04-05T10:55:24;27.63;;;6.55;;
38455;SDS011;24237;50.106;20.014;2023-04-05T10:57:50;32.75;;;6.75;;
38455;SDS011;24237;50.106;20.014;2023-04-05T11:00:17;11.25;;;6.25;;
38455;SDS011;24237;50.106;20.014;2023-04-05T11:02:43;12.23;;;6.03;;
38455;SDS011;24237;50.106;20.014;2023-04-05T11:05:28;16.42;;;5.72;;
38455;SDS011;24237;50.106;20.014;2023-04-05T11:07:57;13.25;;;5.57;;
38455;SDS011;24237;50.106;20.014;2023-04-05T11:10:26;11.65;;;5.75;;
38455;SDS011;24237;50.106;20.014;2023-04-05T11:20:44;12.18;;;5.28;;
38455;SDS011;24237;50.106;20.014;2023-04-05T11:23:12;11.77;;;5.72;;
38455;SDS011;24237;50.106;20.014;2023-04-05T11:25:40;11.10;;;5.32;;
38455;SDS011;24237;50.106;20.014;2023-04-05T11:28:22;9.57;;;5.07;;
38455;SDS011;24237;50.106;20.014;2023-04-05T11:30:50;11.73;;;5.53;;
38455;SDS011;24237;50.106;20.014;2023-04-05T11:36:01;14.73;;;6.10;;
38455;SDS011;24237;50.106;20.014;2023-04-05T11:38:27;20.40;;;8.98;;
38455;SDS011;24237;50.106;20.014;2023-04-05T11:41:03;19.35;;;7.68;;
38455;SDS011;24237;50.106;20.014;2023-04-05T11:43:41;37.28;;;11.45;;
38455;SDS011;24237;50.106;20.014;2023-04-05T11:46:07;26.10;;;11.52;;
38455;SDS011;24237;50.106;20.014;2023-04-05T11:48:33;21.83;;;10.02;;
38455;SDS011;24237;50.106;20.014;2023-04-05T11:51:00;19.42;;;9.10;;
38455;SDS011;24237;50.106;20.014;2023-04-05T11:53:33;18.30;;;8.38;;
38455;SDS011;24237;50.106;20.014;2023-04-05T11:56:05;17.02;;;8.55;;
38455;SDS011;24237;50.106;20.014;2023-04-05T11:58:34;23.17;;;8.88;;
38455;SDS011;24237;50.106;20.014;2023-04-05T12:01:03;25.42;;;8.60;;
38455;SDS011;24237;50.106;20.014;2023-04-05T12:03:31;18.50;;;9.18;;
38455;SDS011;24237;50.106;20.014;2023-04-05T12:05:58;25.63;;;8.98;;
38455;SDS011;24237;50.106;20.014;2023-04-05T12:08:39;20.73;;;7.85;;
38455;SDS011;24237;50.106;20.014;2023-04-05T12:11:14;16.95;;;8.07;;
38455;SDS011;24237;50.106;20.014;2023-04-05T12:13:41;22.65;;;8.25;;
38455;SDS011;24237;50.106;20.014;2023-04-05T12:16:09;21.60;;;8.23;;
38455;SDS011;24237;50.106;20.014;2023-04-05T12:18:35;17.13;;;8.00;;
38455;SDS011;24237;50.106;20.014;2023-04-05T12:21:02;24.67;;;8.55;;
38455;SDS011;24237;50.106;20.014;2023-04-05T12:23:29;19.10;;;8.05;;
38455;SDS011;24237;50.106;20.014;2023-04-05T12:25:56;14.73;;;7.45;;
38455;SDS011;24237;50.106;20.014;2023-04-05T12:28:22;13.10;;;7.03;;
38455;SDS011;24237;50.106;20.014;2023-04-05T12:30:52;16.38;;;6.82;;
38455;SDS011;24237;50.106;20.014;2023-04-05T12:33:28;18.05;;;7.18;;
38455;SDS011;24237;50.106;20.014;2023-04-05T12:35:56;11.07;;;6.45;;
38455;SDS011;24237;50.106;20.014;2023-04-05T12:38:26;15.35;;;7.15;;
38455;SDS011;24237;50.106;20.014;2023-04-05T12:40:53;14.98;;;6.85;;
38455;SDS011;24237;50.106;20.014;2023-04-05T12:43:19;12.70;;;6.75;;
38455;SDS011;24237;50.106;20.014;2023-04-05T12:45:45;13.90;;;7.05;;
38455;SDS011;24237;50.106;20.014;2023-04-05T12:48:14;11.13;;;6.90;;
38455;SDS011;24237;50.106;20.014;2023-04-05T12:50:48;16.73;;;7.50;;
38455;SDS011;24237;50.106;20.014;2023-04-05T12:53:16;12.13;;;6.35;;
38455;SDS011;24237;50.106;20.014;2023-04-05T12:55:47;16.45;;;7.25;;
38455;SDS011;24237;50.106;20.014;2023-04-05T12:58:17;16.90;;;8.18;;
38455;SDS011;24237;50.106;20.014;2023-04-05T13:00:46;12.73;;;7.75;;
38455;SDS011;24237;50.106;20.014;2023-04-05T13:03:16;15.77;;;8.95;;
38455;SDS011;24237;50.106;20.014;2023-04-05T13:05:44;16.25;;;7.75;;
38455;SDS011;24237;50.106;20.014;2023-04-05T13:08:11;17.05;;;9.23;;
38455;SDS011;24237;50.106;20.014;2023-04-05T13:10:37;16.42;;;8.35;;
38455;SDS011;24237;50.106;20.014;2023-04-05T13:13:02;28.75;;;9.13;;
38455;SDS011;24237;50.106;20.014;2023-04-05T13:15:28;16.77;;;7.70;;
38455;SDS011;24237;50.106;20.014;2023-04-05T13:17:53;17.40;;;9.30;;
38455;SDS011;24237;50.106;20.014;2023-04-05T13:20:20;14.43;;;8.27;;
38455;SDS011;24237;50.106;20.014;2023-04-05T13:22:46;14.82;;;7.22;;
38455;SDS011;24237;50.106;20.014;2023-04-05T13:25:12;21.45;;;7.28;;
38455;SDS011;24237;50.106;20.014;2023-04-05T13:27:39;20.48;;;8.43;;
38455;SDS011;24237;50.106;20.014;2023-04-05T13:30:04;20.65;;;7.25;;
38455;SDS011;24237;50.106;20.014;2023-04-05T13:32:31;25.52;;;8.13;;
38455;SDS011;24237;50.106;20.014;2023-04-05T13:34:58;12.60;;;6.72;;
38455;SDS011;24237;50.106;20.014;2023-04-05T13:37:23;18.23;;;9.75;;
38455;SDS011;24237;50.106;20.014;2023-04-05T13:39:49;14.02;;;7.63;;
38455;SDS011;24237;50.106;20.014;2023-04-05T13:42:15;17.23;;;8.15;;
38455;SDS011;24237;50.106;20.014;2023-04-05T13:44:40;10.68;;;6.55;;
38455;SDS011;24237;50.106;20.014;2023-04-05T13:47:06;11.20;;;6.22;;
38455;SDS011;24237;50.106;20.014;2023-04-05T13:49:32;16.52;;;6.18;;
38455;SDS011;24237;50.106;20.014;2023-04-05T13:51:58;16.35;;;7.65;;
38455;SDS011;24237;50.106;20.014;2023-04-05T13:54:24;20.98;;;7.97;;
38455;SDS011;24237;50.106;20.014;2023-04-05T13:56:50;23.90;;;8.13;;
38455;SDS011;24237;50.106;20.014;2023-04-05T13:59:15;17.58;;;7.38;;
38455;SDS011;24237;50.106;20.014;2023-04-05T14:04:08;16.48;;;8.00;;
38455;SDS011;24237;50.106;20.014;2023-04-05T14:06:35;14.85;;;6.47;;
38455;SDS011;24237;50.106;20.014;2023-04-05T14:09:00;13.07;;;7.00;;
38455;SDS011;24237;50.106;20.014;2023-04-05T14:11:26;14.38;;;7.05;;
38455;SDS011;24237;50.106;20.014;2023-04-05T14:13:52;12.77;;;6.38;;
38455;SDS011;24237;50.106;20.014;2023-04-05T14:16:17;11.45;;;6.40;;
38455;SDS011;24237;50.106;20.014;2023-04-05T14:18:43;13.52;;;6.80;;
38455;SDS011;24237;50.106;20.014;2023-04-05T14:21:08;14.95;;;6.18;;
38455;SDS011;24237;50.106;20.014;2023-04-05T14:23:34;12.65;;;6.65;;
38455;SDS011;24237;50.106;20.014;2023-04-05T14:26:00;11.07;;;6.22;;
38455;SDS011;24237;50.106;20.014;2023-04-05T14:28:26;14.02;;;7.07;;
38455;SDS011;24237;50.106;20.014;2023-04-05T14:30:51;31.95;;;7.15;;
38455;SDS011;24237;50.106;20.014;2023-04-05T14:33:17;12.15;;;6.25;;
38455;SDS011;24237;50.106;20.014;2023-04-05T14:35:43;9.88;;;5.07;;
38455;SDS011;24237;50.106;20.014;2023-04-05T14:38:09;11.70;;;5.43;;
38455;SDS011;24237;50.106;20.014;2023-04-05T14:40:35;12.30;;;5.53;;
38455;SDS011;24237;50.106;20.014;2023-04-05T14:43:01;12.77;;;6.22;;
38455;SDS011;24237;50.106;20.014;2023-04-05T14:45:26;14.32;;;5.88;;
38455;SDS011;24237;50.106;20.014;2023-04-05T14:47:52;14.40;;;6.50;;
38455;SDS011;24237;50.106;20.014;2023-04-05T14:50:18;17.88;;;6.75;;
38455;SDS011;24237;50.106;20.014;2023-04-05T14:52:44;12.85;;;5.82;;
38455;SDS011;24237;50.106;20.014;2023-04-05T14:55:10;13.45;;;6.68;;
38455;SDS011;24237;50.106;20.014;2023-04-05T14:57:40;13.68;;;6.10;;
38455;SDS011;24237;50.106;20.014;2023-04-05T15:00:21;12.73;;;4.90;;
38455;SDS011;24237;50.106;20.014;2023-04-05T15:02:48;11.77;;;6.07;;
38455;SDS011;24237;50.106;20.014;2023-04-05T15:05:14;16.10;;;7.43;;
38455;SDS011;24237;50.106;20.014;2023-04-05T15:07:39;12.25;;;5.40;;
38455;SDS011;24237;50.106;20.014;2023-04-05T15:10:05;26.63;;;7.28;;